createdAt,value
2023-05-04T00:01:19.385Z,102547.71
2023-05-04T00:05:48.544Z,102545.92
2023-05-04T00:10:17.259Z,102545.20
2023-05-04T00:34:20.896Z,102540.23
2023-05-04T00:38:49.553Z,102538.29
2023-05-04T00:43:18.177Z,102534.23
2023-05-04T00:47:47.838Z,102532.45
2023-05-04T01:09:44.112Z,102519.02
2023-05-04T01:14:12.818Z,102517.60
2023-05-04T01:36:09.697Z,102509.91
2023-05-04T01:40:38.341Z,102506.73
2023-05-04T01:59:06.342Z,102505.25
2023-05-04T02:03:35.050Z,102508.54
2023-05-04T02:25:11.278Z,102511.26
2023-05-04T02:29:41.204Z,102513.68
2023-05-04T02:51:33.243Z,102507.28
2023-05-04T02:55:51.786Z,102501.45
2023-05-04T03:21:57.231Z,102489.49
2023-05-04T03:26:26.827Z,102492.67
2023-05-04T03:48:20.430Z,102495.68
2023-05-04T03:52:42.367Z,102498.48
2023-05-04T03:57:00.454Z,102497.63
2023-05-04T04:18:54.644Z,102487.41
2023-05-04T04:23:24.493Z,102491.01
2023-05-04T04:40:39.285Z,102490.23
2023-05-04T04:45:08.842Z,102498.20
2023-05-04T04:53:24.826Z,102496.35
2023-05-04T04:57:43.947Z,102491.33
2023-05-04T05:15:10.119Z,102486.80
2023-05-04T05:19:35.147Z,102491.36
2023-05-04T05:51:45.658Z,102480.29
2023-05-04T05:56:14.422Z,102476.86
2023-05-04T06:00:25.869Z,102474.65
2023-05-04T06:04:50.797Z,102482.59
2023-05-04T06:09:01.162Z,102483.91
2023-05-04T06:30:15.747Z,102476.48
2023-05-04T06:34:21.860Z,102472.95
2023-05-04T06:38:26.562Z,102469.03
2023-05-04T06:42:56.141Z,102467.42
2023-05-04T07:08:19.363Z,102469.89
2023-05-04T07:12:32.589Z,102466.30
2023-05-04T07:16:49.905Z,102462.67
2023-05-04T07:20:40.451Z,102465.17
2023-05-04T07:38:02.768Z,102443.10
2023-05-04T07:42:27.396Z,102445.45
2023-05-04T07:59:57.075Z,102440.74
2023-05-04T08:04:26.011Z,102430.58
2023-05-04T08:21:41.349Z,102419.59
2023-05-04T08:25:59.290Z,102417.95
2023-05-04T08:30:17.261Z,102419.81
2023-05-04T08:34:46.664Z,102421.39
2023-05-04T08:38:58.617Z,102420.24
2023-05-04T08:43:31.257Z,102419.41
2023-05-04T09:22:08.544Z,102400.43
2023-05-04T09:32:38.915Z,102392.12
2023-05-04T09:36:41.427Z,102391.77
2023-05-04T09:40:50.495Z,102389.85
2023-05-04T09:44:57.009Z,102386.04
2023-05-04T09:49:17.373Z,102385.60
2023-05-04T10:11:25.994Z,102362.79
2023-05-04T10:15:55.194Z,102365.51
2023-05-04T10:20:44.386Z,102362.37
2023-05-04T10:25:06.728Z,102347.84
2023-05-04T10:29:32.611Z,102350.31
2023-05-04T10:50:11.065Z,102307.52
2023-05-04T10:54:21.792Z,102298.38
2023-05-04T10:58:26.810Z,102296.23
2023-05-04T11:02:52.800Z,102291.03
2023-05-04T11:07:27.753Z,102288.93
2023-05-04T11:29:12.918Z,102260.41
2023-05-04T11:33:16.564Z,102255.63
2023-05-04T11:37:46.115Z,102254.23
2023-05-04T11:58:27.318Z,102243.02
2023-05-04T12:02:16.137Z,102241.75
2023-05-04T12:06:25.453Z,102243.44
2023-05-04T12:10:47.941Z,102240.48
2023-05-04T12:15:17.147Z,102232.04
2023-05-04T12:19:46.726Z,102230.22
2023-05-04T12:24:15.392Z,102224.98
2023-05-04T12:28:32.850Z,102227.61
2023-05-04T12:32:56.615Z,102217.77
2023-05-04T12:58:24.148Z,102193.20
2023-05-04T13:02:43.219Z,102194.87
2023-05-04T13:07:01.278Z,102201.56
2023-05-04T13:11:32.642Z,102198.41
2023-05-04T13:16:01.952Z,102198.98
2023-05-04T13:20:31.203Z,102193.97
2023-05-04T13:24:53.844Z,102192.10
2023-05-04T13:58:39.952Z,102141.90
2023-05-04T14:03:01.796Z,102138.21
2023-05-04T14:07:19.614Z,102128.05
2023-05-04T14:11:48.366Z,102126.80
2023-05-04T14:16:17.952Z,102112.48
2023-05-04T14:37:05.922Z,102084.39
2023-05-04T14:41:19.859Z,102082.13
2023-05-04T14:45:49.251Z,102083.02
2023-05-04T14:49:57.629Z,102079.08
2023-05-04T14:54:04.036Z,102071.41
2023-05-04T14:58:21.761Z,102068.88
2023-05-04T15:02:26.522Z,102066.60
2023-05-04T15:23:32.720Z,102046.27
2023-05-04T15:28:01.873Z,102042.42
2023-05-04T15:32:31.169Z,102040.07
2023-05-04T15:36:37.874Z,102037.60
2023-05-04T15:41:08.240Z,102029.48
2023-05-04T16:10:43.231Z,102012.65
2023-05-04T16:15:05.035Z,102014.70
2023-05-04T16:44:50.917Z,102006.72
2023-05-04T16:49:14.692Z,102012.14
2023-05-04T16:53:24.359Z,102010.55
2023-05-04T16:57:50.087Z,102009.16
2023-05-04T17:02:19.975Z,102023.68
2023-05-04T17:06:49.346Z,102023.93
2023-05-04T17:10:41.524Z,102024.23
2023-05-04T17:44:30.736Z,102020.41
2023-05-04T17:48:52.857Z,102031.75
2023-05-04T17:57:24.375Z,102038.08
2023-05-04T18:01:53.501Z,102039.09
2023-05-04T18:06:28.256Z,102044.95
2023-05-04T18:28:12.456Z,102060.80
2023-05-04T18:32:41.625Z,102066.48
2023-05-04T18:37:14.391Z,102067.77
2023-05-04T18:41:35.803Z,102069.11
2023-05-04T18:58:56.356Z,102091.30
2023-05-04T19:03:18.709Z,102090.56
2023-05-04T19:07:41.104Z,102093.26
2023-05-04T19:11:48.046Z,102097.89
2023-05-04T19:29:07.132Z,102105.67
2023-05-04T19:33:47.784Z,102106.21
2023-05-04T19:38:17.140Z,102105.02
2023-05-04T20:04:13.648Z,102103.50
2023-05-04T20:08:42.848Z,102093.42
2023-05-04T20:30:56.008Z,102085.70
2023-05-04T20:35:25.794Z,102089.20
2023-05-04T20:57:18.379Z,102100.15
2023-05-04T21:01:47.739Z,102102.92
2023-05-04T21:19:13.011Z,102098.00
2023-05-04T21:23:43.138Z,102096.52
2023-05-04T21:28:11.788Z,102088.34
2023-05-04T21:50:10.977Z,102075.40
2023-05-04T21:54:40.709Z,102064.98
2023-05-04T22:07:58.752Z,102062.50
2023-05-04T22:12:28.425Z,102066.52
2023-05-04T22:16:57.804Z,102065.70
2023-05-04T22:38:29.396Z,102066.61
2023-05-04T22:42:59.324Z,102063.31
2023-05-04T22:47:28.521Z,102062.60
2023-05-04T22:51:57.313Z,102067.42
2023-05-04T23:13:50.819Z,102066.75
2023-05-04T23:18:20.075Z,102061.84
2023-05-04T23:22:49.206Z,102060.85
2023-05-04T23:27:19.774Z,102065.75
2023-05-04T23:31:50.018Z,102063.09
2023-05-04T23:58:10.989Z,102068.37
